createdAt,value
2022-10-05T00:00:57.114Z,4290
2022-10-05T00:01:57.153Z,3934
2022-10-05T00:02:57.184Z,3334
2022-10-05T00:04:57.323Z,3240
2022-10-05T00:05:57.190Z,3505
2022-10-05T00:06:57.164Z,4771
2022-10-05T00:07:57.104Z,4884
2022-10-05T00:09:57.295Z,4784
2022-10-05T00:10:57.166Z,3032
2022-10-05T00:11:57.165Z,4202
2022-10-05T00:12:57.161Z,2749
2022-10-05T00:14:57.365Z,4154
2022-10-05T00:15:57.168Z,4621
2022-10-05T00:16:57.218Z,4621
2022-10-05T00:17:57.114Z,4771
2022-10-05T00:19:57.309Z,3632
2022-10-05T00:20:57.114Z,3268
2022-10-05T00:21:57.170Z,4226
2022-10-05T00:22:57.175Z,4262
2022-10-05T00:24:57.320Z,4348
2022-10-05T00:25:57.124Z,4802
2022-10-05T00:26:58.139Z,4840
2022-10-05T00:27:57.190Z,3744
2022-10-05T00:29:57.325Z,4026
2022-10-05T00:30:57.167Z,4290
2022-10-05T00:31:57.213Z,3240
2022-10-05T00:32:59.586Z,4323
2022-10-05T00:34:57.318Z,3305
2022-10-05T00:35:57.199Z,4530
2022-10-05T00:36:57.112Z,4335
2022-10-05T00:37:57.119Z,3476
2022-10-05T00:39:57.311Z,4582
2022-10-05T00:40:57.113Z,3744
2022-10-05T00:41:57.182Z,4884
2022-10-05T00:42:57.184Z,3466
2022-10-05T00:44:57.319Z,3495
2022-10-05T00:45:57.262Z,5393
2022-10-05T00:46:57.172Z,3887
2022-10-05T00:47:57.191Z,5101
2022-10-05T00:49:57.302Z,4146
2022-10-05T00:50:57.177Z,3802
2022-10-05T00:51:57.177Z,5001
2022-10-05T00:52:57.119Z,5451
2022-10-05T00:54:57.319Z,3898
2022-10-05T00:55:57.124Z,4802
2022-10-05T00:56:57.182Z,3586
2022-10-05T00:57:57.187Z,4840
2022-10-05T00:59:57.364Z,3802
2022-10-05T01:00:57.161Z,3968
2022-10-05T01:01:57.156Z,3959
2022-10-05T01:02:57.186Z,4802
2022-10-05T01:04:57.328Z,4916
2022-10-05T01:05:57.177Z,4884
2022-10-05T01:06:57.125Z,3923
2022-10-05T01:07:57.187Z,4056
2022-10-05T01:09:57.331Z,5247
2022-10-05T01:10:57.137Z,3887
2022-10-05T01:11:57.123Z,5001
2022-10-05T01:12:57.186Z,3979
2022-10-05T01:14:57.319Z,3586
2022-10-05T01:15:57.148Z,3923
2022-10-05T01:16:57.206Z,4689
2022-10-05T01:17:57.188Z,5451
2022-10-05T01:19:57.320Z,4026
2022-10-05T01:20:57.189Z,4154
2022-10-05T01:21:57.147Z,4037
2022-10-05T01:22:57.133Z,3945
2022-10-05T01:24:57.324Z,5531
2022-10-05T01:25:57.125Z,4945
2022-10-05T01:26:57.191Z,4106
2022-10-05T01:27:57.187Z,4945
2022-10-05T01:29:57.325Z,5478
2022-10-05T01:30:57.219Z,2102
2022-10-05T01:31:57.237Z,4840
2022-10-05T01:32:57.196Z,3663
2022-10-05T01:34:57.335Z,4662
2022-10-05T01:35:57.137Z,3802
2022-10-05T01:36:57.194Z,3769
2022-10-05T01:37:57.202Z,4771
2022-10-05T01:39:57.346Z,3649
2022-10-05T01:40:57.192Z,5327
2022-10-05T01:41:57.206Z,5147
2022-10-05T01:42:57.154Z,4902
2022-10-05T01:44:57.325Z,2647
2022-10-05T01:45:57.240Z,4621
2022-10-05T01:46:57.221Z,3649
2022-10-05T01:47:57.224Z,3545
2022-10-05T01:49:57.353Z,3586
2022-10-05T01:50:57.138Z,4729
2022-10-05T01:51:57.203Z,4729
2022-10-05T01:52:57.144Z,3710
2022-10-05T01:54:57.341Z,5001
2022-10-05T01:55:57.134Z,4056
2022-10-05T01:56:57.201Z,5262
2022-10-05T01:57:57.146Z,5393
2022-10-05T01:59:57.383Z,4045
2022-10-05T02:00:57.237Z,5756
2022-10-05T02:01:57.268Z,5778
2022-10-05T02:02:57.204Z,5435
2022-10-05T02:05:01.747Z,4402
2022-10-05T02:05:57.201Z,5531
2022-10-05T02:06:57.207Z,4238
2022-10-05T02:07:57.168Z,5348
2022-10-05T02:09:57.358Z,5424
2022-10-05T02:10:57.201Z,5393
2022-10-05T02:11:57.149Z,5658
2022-10-05T02:12:57.204Z,4323
2022-10-05T02:14:57.356Z,5297
2022-10-05T02:15:57.265Z,3945
2022-10-05T02:16:57.240Z,4226
2022-10-05T02:17:57.210Z,5515
2022-10-05T02:19:57.354Z,5451
2022-10-05T02:20:57.222Z,4154
2022-10-05T02:21:57.146Z,5614
2022-10-05T02:22:57.166Z,5409
2022-10-05T02:24:57.365Z,5598
2022-10-05T02:25:57.214Z,5147
2022-10-05T02:26:57.180Z,4959
2022-10-05T02:27:57.172Z,5466
2022-10-05T02:29:57.332Z,5262
2022-10-05T02:30:57.210Z,5312
2022-10-05T02:31:57.266Z,4262
2022-10-05T02:32:57.169Z,4385
2022-10-05T02:34:57.349Z,5393
2022-10-05T02:35:57.182Z,4011
2022-10-05T02:36:57.160Z,4011
2022-10-05T02:37:57.167Z,5691
2022-10-05T02:39:57.350Z,4226
2022-10-05T02:40:57.212Z,5147
2022-10-05T02:41:57.217Z,4262
2022-10-05T02:42:57.216Z,4166
2022-10-05T02:44:57.340Z,4214
2022-10-05T02:45:57.263Z,5451
2022-10-05T02:46:57.761Z,3231
2022-10-05T02:47:57.162Z,4802
2022-10-05T02:49:57.382Z,5860
2022-10-05T02:50:57.157Z,4902
2022-10-05T02:51:57.211Z,3835
2022-10-05T02:52:57.163Z,4802
2022-10-05T02:54:57.354Z,3535
2022-10-05T02:55:57.166Z,5222
2022-10-05T02:56:57.163Z,3681
2022-10-05T02:57:57.223Z,3992
2022-10-05T02:59:57.397Z,4816
2022-10-05T03:00:57.259Z,3092
2022-10-05T03:01:57.197Z,5162
2022-10-05T03:02:57.228Z,5222
2022-10-05T03:04:57.418Z,5162
2022-10-05T03:05:57.243Z,5348
2022-10-05T03:06:57.172Z,4083
2022-10-05T03:07:57.251Z,5478
2022-10-05T03:10:00.192Z,3813
2022-10-05T03:10:57.169Z,5222
2022-10-05T03:11:57.223Z,4983
2022-10-05T03:12:57.206Z,5030
2022-10-05T03:14:57.373Z,3734
2022-10-05T03:15:57.270Z,5147
2022-10-05T03:16:57.249Z,5087
2022-10-05T03:17:57.246Z,3824
2022-10-05T03:19:57.376Z,5016
2022-10-05T03:20:57.233Z,3525
2022-10-05T03:21:57.252Z,3563
2022-10-05T03:22:57.188Z,4608
2022-10-05T03:24:57.352Z,4435
2022-10-05T03:25:57.186Z,4945
2022-10-05T03:26:57.177Z,4816
2022-10-05T03:27:57.228Z,3780
2022-10-05T03:29:57.367Z,3710
2022-10-05T03:30:57.275Z,4565
2022-10-05T03:31:57.237Z,4402
2022-10-05T03:32:57.233Z,2793
2022-10-05T03:34:57.383Z,4513
2022-10-05T03:35:57.179Z,3466
2022-10-05T03:36:57.188Z,3421
2022-10-05T03:37:57.180Z,3365
2022-10-05T03:39:57.372Z,3443
2022-10-05T03:40:57.179Z,4364
2022-10-05T03:41:57.271Z,3384
2022-10-05T03:42:57.238Z,4556
2022-10-05T03:44:57.375Z,4072
2022-10-05T03:45:57.208Z,4335
2022-10-05T03:46:57.263Z,3431
2022-10-05T03:48:01.245Z,3411
2022-10-05T03:49:57.437Z,3515
2022-10-05T03:50:57.188Z,4423
2022-10-05T03:51:57.181Z,3365
2022-10-05T03:52:57.206Z,4414
2022-10-05T03:54:57.370Z,3466
2022-10-05T03:55:57.189Z,4556
2022-10-05T03:56:57.229Z,3466
2022-10-05T03:57:57.242Z,4621
2022-10-05T03:59:57.392Z,3421
2022-10-05T04:00:57.238Z,4465
2022-10-05T04:01:57.217Z,4348
2022-10-05T04:02:57.300Z,4402
2022-10-05T04:04:57.383Z,4364
2022-10-05T04:05:57.213Z,3356
2022-10-05T04:06:57.249Z,4761
2022-10-05T04:07:57.211Z,4582
2022-10-05T04:09:57.365Z,4635
2022-10-05T04:10:57.246Z,4423
2022-10-05T04:11:57.189Z,4916
2022-10-05T04:12:57.252Z,3535
2022-10-05T04:14:57.389Z,5001
2022-10-05T04:15:57.339Z,5207
2022-10-05T04:16:57.195Z,5030
2022-10-05T04:17:57.255Z,5598
2022-10-05T04:19:57.414Z,4414
2022-10-05T04:20:57.202Z,5582
2022-10-05T04:21:57.273Z,5843
2022-10-05T04:22:57.261Z,4492
2022-10-05T04:24:57.387Z,5907
2022-10-05T04:25:57.199Z,4026
2022-10-05T04:26:57.278Z,5531
2022-10-05T04:27:57.320Z,4106
2022-10-05T04:29:57.404Z,5890
2022-10-05T04:30:57.314Z,4323
2022-10-05T04:31:57.259Z,4385
2022-10-05T04:32:57.316Z,5821
2022-10-05T04:34:57.450Z,4198
2022-10-05T04:35:57.214Z,4049
2022-10-05T04:36:57.219Z,3972
2022-10-05T04:37:57.259Z,3961
2022-10-05T04:39:57.407Z,5021
2022-10-05T04:40:57.274Z,3832
2022-10-05T04:41:57.201Z,5079
2022-10-05T04:42:57.233Z,5252
2022-10-05T04:44:59.196Z,3865
2022-10-05T04:45:57.287Z,5121
2022-10-05T04:46:57.300Z,3783
2022-10-05T04:47:57.214Z,3802
2022-10-05T04:49:57.442Z,4348
2022-10-05T04:50:57.299Z,3895
2022-10-05T04:51:57.267Z,3961
2022-10-05T04:52:57.206Z,5065
2022-10-05T04:54:57.381Z,4954
2022-10-05T04:55:57.214Z,4560
2022-10-05T04:56:57.215Z,4560
2022-10-05T04:57:57.208Z,3607
2022-10-05T04:59:57.387Z,3556
2022-10-05T05:00:57.306Z,3884
2022-10-05T05:01:57.216Z,5021
2022-10-05T05:02:57.216Z,3930
2022-10-05T05:04:57.412Z,4926
2022-10-05T05:06:12.417Z,4992
2022-10-05T05:06:57.278Z,3688
2022-10-05T05:07:57.269Z,3984
2022-10-05T05:09:57.387Z,3639
2022-10-05T05:10:57.280Z,3340
2022-10-05T05:11:57.213Z,3529
2022-10-05T05:12:57.211Z,4509
2022-10-05T05:14:57.410Z,3240
2022-10-05T05:15:57.317Z,4234
2022-10-05T05:16:57.265Z,3453
2022-10-05T05:17:57.218Z,3384
2022-10-05T05:19:57.394Z,4560
2022-10-05T05:20:57.276Z,4595
2022-10-05T05:21:57.228Z,4775
2022-10-05T05:22:57.291Z,3576
2022-10-05T05:24:57.409Z,3576
2022-10-05T05:25:57.283Z,3284
2022-10-05T05:26:57.223Z,3794
2022-10-05T05:27:57.265Z,3368
2022-10-05T05:29:57.423Z,4323
2022-10-05T05:30:57.241Z,4398
2022-10-05T05:31:57.307Z,3762
2022-10-05T05:32:57.275Z,4348
2022-10-05T05:34:57.408Z,4688
2022-10-05T05:35:57.250Z,4106
2022-10-05T05:36:57.238Z,3394
2022-10-05T05:37:57.229Z,3258
2022-10-05T05:39:57.431Z,4118
2022-10-05T05:40:57.216Z,3324
2022-10-05T05:41:57.308Z,4026
2022-10-05T05:42:57.283Z,4106
2022-10-05T05:44:57.439Z,3884
2022-10-05T05:45:57.242Z,3023
2022-10-05T05:47:04.232Z,2959
2022-10-05T05:47:57.235Z,2927
2022-10-05T05:49:57.420Z,3783
2022-10-05T05:50:57.286Z,3825
2022-10-05T05:51:57.295Z,3854
2022-10-05T05:52:57.287Z,3783
2022-10-05T05:54:57.409Z,3783
2022-10-05T05:55:57.229Z,3057
2022-10-05T05:56:57.248Z,3895
2022-10-05T05:57:57.239Z,4303
2022-10-05T05:59:57.448Z,3023
2022-10-05T06:00:57.230Z,2992
2022-10-05T06:01:57.363Z,3772
2022-10-05T06:02:57.373Z,3566
2022-10-05T06:04:57.413Z,3930
2022-10-05T06:05:57.293Z,3089
2022-10-05T06:06:57.294Z,3941
2022-10-05T06:07:57.235Z,3825
2022-10-05T06:09:57.441Z,3930
2022-10-05T06:10:57.293Z,3709
2022-10-05T06:11:57.234Z,2732
2022-10-05T06:13:00.892Z,3720
2022-10-05T06:14:57.449Z,3597
2022-10-05T06:15:57.382Z,3556
2022-10-05T06:16:57.355Z,2786
2022-10-05T06:17:57.302Z,3284
2022-10-05T06:20:01.194Z,3411
2022-10-05T06:20:57.298Z,3203
2022-10-05T06:21:57.287Z,2623
2022-10-05T06:22:57.242Z,2544
2022-10-05T06:24:57.456Z,3384
2022-10-05T06:25:57.240Z,3333
2022-10-05T06:26:57.246Z,3324
2022-10-05T06:27:57.258Z,2516
2022-10-05T06:29:57.439Z,2488
2022-10-05T06:30:57.325Z,3089
2022-10-05T06:31:58.965Z,2342
2022-10-05T06:32:57.250Z,3131
2022-10-05T06:34:57.442Z,2355
2022-10-05T06:35:57.259Z,2984
2022-10-05T06:36:57.244Z,2328
2022-10-05T06:37:57.249Z,3057
2022-10-05T06:40:00.836Z,2975
2022-10-05T06:40:57.243Z,3074
2022-10-05T06:41:57.298Z,3083
2022-10-05T06:42:57.305Z,3249
2022-10-05T06:44:57.467Z,2965
2022-10-05T06:45:57.345Z,2328
2022-10-05T06:46:57.308Z,2975
2022-10-05T06:47:59.445Z,2831
2022-10-05T06:49:57.456Z,2401
2022-10-05T06:50:57.310Z,2382
2022-10-05T06:51:57.309Z,1925
2022-10-05T06:52:57.336Z,2469
2022-10-05T06:54:57.539Z,1936
2022-10-05T06:55:57.327Z,2315
2022-10-05T06:56:57.316Z,1925
2022-10-05T06:57:57.317Z,2033
2022-10-05T06:59:57.431Z,2110
2022-10-05T07:00:57.321Z,1478
2022-10-05T07:01:57.313Z,1822
2022-10-05T07:02:57.292Z,1768
2022-10-05T07:04:57.465Z,1296
2022-10-05T07:05:57.259Z,1736
2022-10-05T07:06:57.266Z,1656
2022-10-05T07:07:57.348Z,1715
2022-10-05T07:09:57.452Z,1600
2022-10-05T07:10:57.269Z,1340
2022-10-05T07:12:00.976Z,1026
2022-10-05T07:12:57.254Z,1369
2022-10-05T07:14:57.448Z,1279
2022-10-05T07:15:57.281Z,1026
2022-10-05T07:16:57.301Z,944
2022-10-05T07:17:57.345Z,975
2022-10-05T07:19:57.457Z,1197
2022-10-05T07:20:57.272Z,1245
2022-10-05T07:21:57.372Z,975
2022-10-05T07:22:57.265Z,955
2022-10-05T07:24:57.458Z,1229
2022-10-05T07:25:57.356Z,1177
2022-10-05T07:26:57.340Z,939
2022-10-05T07:27:57.380Z,883
2022-10-05T07:29:57.450Z,1163
2022-10-05T07:30:57.374Z,1163
2022-10-05T07:31:57.282Z,881
2022-10-05T07:32:57.282Z,1147
2022-10-05T07:34:57.449Z,1177
2022-10-05T07:35:57.274Z,741
2022-10-05T07:36:57.625Z,975
2022-10-05T07:37:57.339Z,745
2022-10-05T07:40:00.355Z,946
2022-10-05T07:40:57.345Z,835
2022-10-05T07:41:57.348Z,886
2022-10-05T07:42:57.328Z,634
2022-10-05T07:44:57.484Z,941
2022-10-05T07:45:57.381Z,929
2022-10-05T07:46:57.339Z,752
2022-10-05T07:47:57.336Z,745
2022-10-05T07:49:57.490Z,920
2022-10-05T07:50:57.330Z,890
2022-10-05T07:51:57.346Z,675
2022-10-05T07:52:57.333Z,683
2022-10-05T07:54:57.487Z,839
2022-10-05T07:55:57.339Z,762
2022-10-05T07:56:57.350Z,628
2022-10-05T07:57:57.368Z,794
2022-10-05T07:59:57.488Z,696
2022-10-05T08:00:57.348Z,750
2022-10-05T08:01:57.386Z,747
2022-10-05T08:02:57.399Z,770
2022-10-05T08:04:57.487Z,577
2022-10-05T08:05:57.353Z,774
2022-10-05T08:06:57.367Z,733
2022-10-05T08:07:57.283Z,652
2022-10-05T08:09:57.547Z,712
2022-10-05T08:10:57.377Z,743
2022-10-05T08:11:57.345Z,794
2022-10-05T08:12:57.369Z,557
2022-10-05T08:14:57.474Z,567
2022-10-05T08:15:57.404Z,585
2022-10-05T08:16:57.310Z,760
2022-10-05T08:17:57.310Z,698
2022-10-05T08:19:57.501Z,690
2022-10-05T08:20:57.350Z,698
2022-10-05T08:21:57.295Z,694
2022-10-05T08:22:57.349Z,572
2022-10-05T08:24:57.498Z,446
2022-10-05T08:25:57.355Z,625
2022-10-05T08:26:57.357Z,674
2022-10-05T08:27:57.396Z,698
2022-10-05T08:29:57.517Z,665
2022-10-05T08:30:57.394Z,679
2022-10-05T08:31:57.356Z,672
2022-10-05T08:32:57.371Z,533
2022-10-05T08:34:57.516Z,698
2022-10-05T08:35:57.357Z,633
2022-10-05T08:36:57.361Z,668
2022-10-05T08:37:57.371Z,667
2022-10-05T08:39:57.520Z,475
2022-10-05T08:40:57.357Z,445
2022-10-05T08:41:57.366Z,570
2022-10-05T08:42:57.378Z,549
2022-10-05T08:44:57.556Z,528
2022-10-05T08:45:57.437Z,549
2022-10-05T08:46:57.366Z,557
2022-10-05T08:47:57.387Z,445
2022-10-05T08:49:57.505Z,432
2022-10-05T08:50:57.370Z,570
2022-10-05T08:51:57.376Z,578
2022-10-05T08:52:57.383Z,549
2022-10-05T08:54:57.540Z,452
2022-10-05T08:55:57.368Z,418
2022-10-05T08:56:57.374Z,437
2022-10-05T08:57:57.376Z,497
2022-10-05T08:59:57.519Z,477
2022-10-05T09:00:57.353Z,572
2022-10-05T09:01:57.434Z,537
2022-10-05T09:02:57.414Z,554
2022-10-05T09:04:57.518Z,490
2022-10-05T09:05:57.395Z,546
2022-10-05T09:06:57.405Z,615
2022-10-05T09:07:57.386Z,602
2022-10-05T09:10:01.475Z,603
2022-10-05T09:10:57.363Z,424
2022-10-05T09:11:57.319Z,424
2022-10-05T09:12:57.331Z,424
2022-10-05T09:15:20.776Z,506
2022-10-05T09:15:57.391Z,463
2022-10-05T09:16:57.373Z,478
2022-10-05T09:17:57.321Z,501
2022-10-05T09:19:57.531Z,501
2022-10-05T09:20:57.383Z,490
2022-10-05T09:21:57.381Z,424
2022-10-05T09:22:57.386Z,424
2022-10-05T09:24:57.513Z,424
2022-10-05T09:25:57.347Z,400
2022-10-05T09:26:57.317Z,400
2022-10-05T09:27:57.357Z,441
2022-10-05T09:29:57.518Z,409
2022-10-05T09:30:57.409Z,573
2022-10-05T09:31:57.322Z,593
2022-10-05T09:32:57.384Z,572
2022-10-05T09:34:57.508Z,599
2022-10-05T09:35:57.325Z,492
2022-10-05T09:36:57.329Z,519
2022-10-05T09:37:57.387Z,487
2022-10-05T09:40:01.151Z,400
2022-10-05T09:40:57.323Z,464
2022-10-05T09:41:57.336Z,464
2022-10-05T09:42:57.328Z,464
2022-10-05T09:44:57.548Z,495
2022-10-05T09:45:57.459Z,482
2022-10-05T09:46:57.392Z,481
2022-10-05T09:47:57.404Z,526
2022-10-05T09:49:57.573Z,436
2022-10-05T09:50:57.408Z,406
2022-10-05T09:51:57.407Z,406
2022-10-05T09:52:57.399Z,406
2022-10-05T09:54:57.558Z,406
2022-10-05T09:55:57.396Z,400
2022-10-05T09:56:57.405Z,483
2022-10-05T09:57:57.395Z,506
2022-10-05T09:59:57.660Z,427
2022-10-05T10:01:03.571Z,491
2022-10-05T10:01:57.452Z,483
2022-10-05T10:02:57.479Z,481
2022-10-05T10:04:57.554Z,549
2022-10-05T10:05:57.410Z,581
2022-10-05T10:06:57.429Z,570
2022-10-05T10:07:57.431Z,593
2022-10-05T10:09:57.542Z,539
2022-10-05T10:10:57.404Z,567
2022-10-05T10:11:57.428Z,564
2022-10-05T10:12:57.407Z,611
2022-10-05T10:13:57.430Z,556
2022-10-05T10:16:02.969Z,400
2022-10-05T10:17:02.958Z,400
2022-10-05T10:18:02.943Z,400
2022-10-05T10:20:03.143Z,400
2022-10-05T10:21:02.973Z,400
2022-10-05T10:22:02.975Z,400
2022-10-05T10:23:02.967Z,400
2022-10-05T10:25:03.141Z,400
2022-10-05T10:26:02.979Z,400
2022-10-05T10:27:02.974Z,410
2022-10-05T10:28:03.072Z,400
2022-10-05T10:30:03.146Z,400
2022-10-05T10:31:03.014Z,400
2022-10-05T10:32:02.971Z,400
2022-10-05T10:33:02.963Z,400
2022-10-05T10:35:03.156Z,400
2022-10-05T10:36:04.465Z,423
2022-10-05T10:37:02.998Z,423
2022-10-05T10:38:02.978Z,423
2022-10-05T10:40:03.184Z,423
2022-10-05T10:41:02.978Z,400
2022-10-05T10:42:02.979Z,400
2022-10-05T10:43:02.975Z,400
2022-10-05T10:45:03.154Z,400
2022-10-05T10:46:03.019Z,432
2022-10-05T10:47:02.960Z,432
2022-10-05T10:48:03.063Z,432
2022-10-05T10:50:03.141Z,605
2022-10-05T10:51:02.962Z,415
2022-10-05T10:52:02.949Z,450
2022-10-05T10:53:02.964Z,415
2022-10-05T10:55:03.169Z,415
2022-10-05T10:56:02.980Z,520
2022-10-05T10:57:02.979Z,520
2022-10-05T10:58:02.979Z,520
2022-10-05T11:00:03.164Z,520
2022-10-05T11:01:02.983Z,552
2022-10-05T11:02:03.070Z,552
2022-10-05T11:03:03.146Z,552
2022-10-05T11:05:03.172Z,552
2022-10-05T11:06:02.984Z,488
2022-10-05T11:07:02.989Z,488
2022-10-05T11:08:02.989Z,626
2022-10-05T11:10:03.313Z,488
2022-10-05T11:11:02.982Z,465
2022-10-05T11:12:02.985Z,456
2022-10-05T11:13:02.999Z,456
2022-10-05T11:15:03.167Z,456
2022-10-05T11:16:03.093Z,442
2022-10-05T11:17:03.003Z,442
2022-10-05T11:18:03.008Z,442
2022-10-05T11:20:04.356Z,442
2022-10-05T11:21:02.987Z,400
2022-10-05T11:22:02.996Z,400
2022-10-05T11:23:03.030Z,400
2022-10-05T11:25:03.190Z,408
2022-10-05T11:26:02.995Z,432
2022-10-05T11:27:02.995Z,432
2022-10-05T11:28:03.066Z,432
2022-10-05T11:30:03.177Z,432
2022-10-05T11:31:03.040Z,400
2022-10-05T11:32:03.040Z,400
2022-10-05T11:33:03.005Z,400
2022-10-05T11:35:03.169Z,403
2022-10-05T11:36:02.985Z,476
2022-10-05T11:37:02.968Z,505
2022-10-05T11:38:02.986Z,545
2022-10-05T11:40:03.187Z,424
2022-10-05T11:41:02.987Z,448
2022-10-05T11:42:02.991Z,492
2022-10-05T11:43:02.988Z,448
2022-10-05T11:45:03.194Z,448
2022-10-05T11:46:03.031Z,443
2022-10-05T11:47:02.994Z,542
2022-10-05T11:48:02.985Z,488
2022-10-05T11:50:03.188Z,422
2022-10-05T11:51:02.976Z,785
2022-10-05T11:52:02.993Z,577
2022-10-05T11:53:02.982Z,827
2022-10-05T11:55:10.713Z,506
2022-10-05T11:56:02.995Z,679
2022-10-05T11:57:02.989Z,529
2022-10-05T11:58:03.002Z,518
2022-10-05T12:00:03.166Z,518
2022-10-05T12:01:03.003Z,459
2022-10-05T12:02:02.991Z,408
2022-10-05T12:03:03.135Z,436
2022-10-05T12:05:03.190Z,462
2022-10-05T12:06:02.997Z,441
2022-10-05T12:07:03.008Z,424
2022-10-05T12:08:03.003Z,424
2022-10-05T12:10:03.175Z,519
2022-10-05T12:11:03.015Z,545
2022-10-05T12:12:03.036Z,868
2022-10-05T12:13:03.017Z,477
2022-10-05T12:15:03.179Z,530
2022-10-05T12:16:03.064Z,578
2022-10-05T12:17:03.048Z,506
2022-10-05T12:18:03.051Z,506
2022-10-05T12:20:03.262Z,551
2022-10-05T12:21:03.046Z,413
2022-10-05T12:22:03.028Z,520
2022-10-05T12:23:03.036Z,408
2022-10-05T12:25:03.205Z,413
2022-10-05T12:26:03.048Z,445
2022-10-05T12:27:03.027Z,400
2022-10-05T12:28:03.052Z,400
2022-10-05T12:30:03.312Z,470
2022-10-05T12:31:03.087Z,459
2022-10-05T12:32:03.037Z,400
2022-10-05T12:33:03.043Z,491
2022-10-05T12:35:03.222Z,403
2022-10-05T12:36:03.038Z,631
2022-10-05T12:37:04.361Z,546
2022-10-05T12:38:03.042Z,481
2022-10-05T12:40:03.218Z,543
2022-10-05T12:41:03.033Z,478
2022-10-05T12:42:03.001Z,493
2022-10-05T12:43:03.019Z,506
2022-10-05T12:45:03.197Z,539
2022-10-05T12:46:03.090Z,572
2022-10-05T12:47:03.006Z,556
2022-10-05T12:48:03.042Z,524
2022-10-05T12:50:03.203Z,475
2022-10-05T12:51:03.027Z,503
2022-10-05T12:52:03.041Z,683
2022-10-05T12:53:03.050Z,678
2022-10-05T12:55:03.215Z,612
2022-10-05T12:56:03.055Z,578
2022-10-05T12:57:03.040Z,498
2022-10-05T12:58:03.068Z,488
2022-10-05T13:00:03.228Z,597
2022-10-05T13:01:03.083Z,596
2022-10-05T13:02:03.075Z,444
2022-10-05T13:03:03.065Z,542
2022-10-05T13:05:03.230Z,444
2022-10-05T13:06:03.078Z,602
2022-10-05T13:07:03.057Z,569
2022-10-05T13:08:03.055Z,520
2022-10-05T13:10:03.268Z,638
2022-10-05T13:11:03.049Z,465
2022-10-05T13:12:03.063Z,465
2022-10-05T13:13:03.050Z,605
2022-10-05T13:15:03.246Z,465
2022-10-05T13:16:03.100Z,400
2022-10-05T13:17:03.056Z,481
2022-10-05T13:18:03.051Z,497
2022-10-05T13:20:03.239Z,506
2022-10-05T13:21:03.065Z,649
2022-10-05T13:22:03.027Z,480
2022-10-05T13:23:03.038Z,649
2022-10-05T13:25:03.230Z,702
2022-10-05T13:26:03.059Z,637
2022-10-05T13:27:03.048Z,594
2022-10-05T13:28:03.059Z,459
2022-10-05T13:30:03.242Z,542
2022-10-05T13:31:03.080Z,646
2022-10-05T13:32:03.048Z,483
2022-10-05T13:33:03.056Z,564
2022-10-05T13:35:04.931Z,483
2022-10-05T13:36:03.047Z,560
2022-10-05T13:37:03.035Z,623
2022-10-05T13:38:03.052Z,611
2022-10-05T13:40:03.231Z,470
2022-10-05T13:41:03.059Z,520
2022-10-05T13:42:03.036Z,488
2022-10-05T13:43:03.047Z,488
2022-10-05T13:45:03.237Z,488
2022-10-05T13:46:03.103Z,523
2022-10-05T13:47:03.047Z,523
2022-10-05T13:48:03.065Z,523
2022-10-05T13:50:03.231Z,523
2022-10-05T13:51:03.084Z,508
2022-10-05T13:52:03.088Z,508
2022-10-05T13:53:03.047Z,508
2022-10-05T13:55:03.253Z,508
2022-10-05T13:56:03.076Z,620
2022-10-05T13:57:03.073Z,620
2022-10-05T13:58:03.050Z,620
2022-10-05T14:00:03.286Z,620
2022-10-05T14:01:03.076Z,620
2022-10-05T14:02:03.169Z,620
2022-10-05T14:03:03.103Z,620
2022-10-05T14:05:03.240Z,620
2022-10-05T14:06:03.072Z,599
2022-10-05T14:07:03.055Z,599
2022-10-05T14:08:03.080Z,599
2022-10-05T14:10:03.251Z,599
2022-10-05T14:11:03.051Z,553
2022-10-05T14:12:03.056Z,553
2022-10-05T14:13:03.065Z,553
2022-10-05T14:15:03.284Z,553
2022-10-05T14:16:03.076Z,470
2022-10-05T14:18:03.060Z,470
2022-10-05T14:20:03.264Z,470
2022-10-05T14:21:03.075Z,488
2022-10-05T14:22:03.064Z,488
2022-10-05T14:23:03.094Z,488
2022-10-05T14:25:03.287Z,488
2022-10-05T14:26:04.399Z,460
2022-10-05T14:27:03.084Z,460
2022-10-05T14:28:03.132Z,460
2022-10-05T14:30:03.288Z,460
2022-10-05T14:31:03.064Z,508
2022-10-05T14:32:03.143Z,508
2022-10-05T14:33:03.059Z,508
2022-10-05T14:35:03.271Z,508
2022-10-05T14:36:03.086Z,508
2022-10-05T14:37:03.083Z,508
2022-10-05T14:38:03.068Z,508
2022-10-05T14:40:03.581Z,508
2022-10-05T14:41:03.089Z,520
2022-10-05T14:42:03.120Z,520
2022-10-05T14:43:03.102Z,520
2022-10-05T14:45:03.281Z,520
2022-10-05T14:46:03.227Z,611
2022-10-05T14:47:03.104Z,611
2022-10-05T14:48:03.108Z,611
2022-10-05T14:50:03.287Z,611
2022-10-05T14:51:03.101Z,533
2022-10-05T14:52:03.074Z,533
2022-10-05T14:53:03.115Z,533
2022-10-05T14:55:03.270Z,533
2022-10-05T14:56:03.090Z,575
2022-10-05T14:57:03.082Z,575
2022-10-05T14:58:03.096Z,575
2022-10-05T15:00:03.301Z,575
2022-10-05T15:01:03.125Z,600
2022-10-05T15:02:03.137Z,600
2022-10-05T15:03:03.094Z,600
2022-10-05T15:05:03.270Z,600
2022-10-05T15:06:03.091Z,697
2022-10-05T15:07:04.134Z,697
2022-10-05T15:08:03.102Z,697
2022-10-05T15:10:03.301Z,697
2022-10-05T15:11:03.095Z,699
2022-10-05T15:12:03.105Z,699
2022-10-05T15:13:03.094Z,699
2022-10-05T15:15:03.310Z,699
2022-10-05T15:16:03.107Z,686
2022-10-05T15:17:03.180Z,686
2022-10-05T15:18:03.118Z,686
2022-10-05T15:20:03.299Z,686
2022-10-05T15:21:03.124Z,726
2022-10-05T15:22:03.137Z,726
2022-10-05T15:23:03.130Z,726
2022-10-05T15:25:03.309Z,726
2022-10-05T15:26:03.126Z,763
2022-10-05T15:27:03.118Z,763
2022-10-05T15:28:03.197Z,763
2022-10-05T15:30:03.342Z,763
2022-10-05T15:31:03.211Z,776
2022-10-05T15:32:03.156Z,776
2022-10-05T15:33:03.131Z,776
2022-10-05T15:35:03.323Z,776
2022-10-05T15:36:03.127Z,791
2022-10-05T15:37:03.133Z,791
2022-10-05T15:38:03.142Z,791
2022-10-05T15:40:03.308Z,791
2022-10-05T15:41:03.119Z,819
2022-10-05T15:42:03.114Z,819
2022-10-05T15:43:03.137Z,819
2022-10-05T15:45:03.324Z,819
2022-10-05T15:46:03.166Z,935
2022-10-05T15:47:03.107Z,935
2022-10-05T15:48:03.130Z,935
2022-10-05T15:50:03.333Z,935
2022-10-05T15:51:03.109Z,844
2022-10-05T15:52:03.121Z,844
2022-10-05T15:53:03.142Z,844
2022-10-05T15:55:03.325Z,844
2022-10-05T15:56:03.105Z,990
2022-10-05T15:57:03.115Z,990
2022-10-05T15:58:03.126Z,990
2022-10-05T16:00:03.337Z,990
2022-10-05T16:01:03.183Z,959
2022-10-05T16:02:03.160Z,959
2022-10-05T16:03:03.131Z,959
2022-10-05T16:05:04.871Z,959
2022-10-05T16:06:03.124Z,990
2022-10-05T16:07:03.137Z,990
2022-10-05T16:08:03.153Z,990
2022-10-05T16:10:03.343Z,990
2022-10-05T16:11:03.111Z,945
2022-10-05T16:12:03.125Z,945
2022-10-05T16:13:03.138Z,945
2022-10-05T16:15:03.334Z,945
2022-10-05T16:16:03.117Z,975
2022-10-05T16:17:03.139Z,975
2022-10-05T16:18:03.172Z,975
2022-10-05T16:20:03.338Z,975
2022-10-05T16:21:03.137Z,1047
2022-10-05T16:22:03.121Z,1047
2022-10-05T16:23:03.139Z,1047
2022-10-05T16:25:03.319Z,1047
2022-10-05T16:26:03.145Z,1032
2022-10-05T16:27:03.157Z,1032
2022-10-05T16:28:05.446Z,1032
2022-10-05T16:30:03.311Z,1032
2022-10-05T16:31:03.167Z,1012
2022-10-05T16:32:03.128Z,1012
2022-10-05T16:33:03.135Z,1012
2022-10-05T16:35:03.310Z,1012
2022-10-05T16:36:03.148Z,1047
2022-10-05T16:37:03.150Z,1047
2022-10-05T16:38:03.148Z,1047
2022-10-05T16:40:03.347Z,1047
2022-10-05T16:41:03.148Z,1047
2022-10-05T16:42:03.158Z,1047
2022-10-05T16:43:03.162Z,1047
2022-10-05T16:45:03.316Z,1047
2022-10-05T16:46:03.193Z,930
2022-10-05T16:47:03.146Z,930
2022-10-05T16:48:03.148Z,930
2022-10-05T16:50:03.324Z,930
2022-10-05T16:51:03.150Z,1012
2022-10-05T16:52:03.151Z,1012
2022-10-05T16:53:03.153Z,1012
2022-10-05T16:55:03.322Z,1012
2022-10-05T16:56:03.140Z,1047
2022-10-05T16:57:03.158Z,1047